Time;durP1;ratioP1;P1;durP2;ratioP2;P2;SDS_P1;SDS_P2;PMS_P1;PMS_P2;Temp;Humidity;BMP_temperature;BMP_pressure;BME280_temperature;BME280_humidity;BME280_pressure;Samples;Min_cycle;Max_cycle;Signal;HPM_P1;HPM_P2
2023/06/25 00:02:29;;;;;;;14.33;11.07;;;;;;;;;;5281068;28;20020;-74
2023/06/25 00:05:00;;;;;;;13.67;11.67;;;;;;;;;;5280797;28;20689;-75
2023/06/25 00:07:31;;;;;;;13.87;11.27;;;;;;;;;;5280009;28;20347;-76
2023/06/25 00:10:03;;;;;;;12.57;11.30;;;;;;;;;;5280991;28;20277;-74
2023/06/25 00:12:34;;;;;;;14.27;11.93;;;;;;;;;;5280751;28;20267;-75
2023/06/25 00:15:06;;;;;;;13.18;11.90;;;;;;;;;;5280698;28;20066;-74
2023/06/25 00:17:38;;;;;;;12.70;11.48;;;;;;;;;;5282781;28;20467;-75
2023/06/25 00:20:11;;;;;;;13.40;12.18;;;;;;;;;;5283790;28;20033;-75
2023/06/25 00:22:45;;;;;;;13.25;11.93;;;;;;;;;;5284134;28;20036;-74
2023/06/25 00:25:17;;;;;;;17.67;13.32;;;;;;;;;;5284873;28;20441;-75
2023/06/25 00:27:48;;;;;;;13.75;12.20;;;;;;;;;;5283522;28;20095;-75
2023/06/25 00:30:19;;;;;;;13.43;12.03;;;;;;;;;;5284834;28;20023;-74
2023/06/25 00:32:54;;;;;;;14.97;13.00;;;;;;;;;;5284140;28;20780;-74
2023/06/25 00:35:27;;;;;;;15.57;12.75;;;;;;;;;;5283751;28;20792;-75
2023/06/25 00:38:01;;;;;;;13.90;11.80;;;;;;;;;;5284252;28;20028;-74
2023/06/25 00:40:32;;;;;;;14.43;12.32;;;;;;;;;;5284521;28;20378;-74
2023/06/25 00:43:04;;;;;;;14.37;12.83;;;;;;;;;;5283534;28;20025;-75
2023/06/25 00:45:35;;;;;;;14.02;12.60;;;;;;;;;;5284301;28;20279;-74
2023/06/25 00:48:07;;;;;;;13.82;12.43;;;;;;;;;;5283437;28;20428;-74
2023/06/25 00:50:38;;;;;;;14.77;13.35;;;;;;;;;;5284175;28;20380;-75
2023/06/25 00:53:09;;;;;;;13.52;12.13;;;;;;;;;;5284510;28;20032;-75
2023/06/25 00:55:40;;;;;;;14.55;13.05;;;;;;;;;;5283353;28;20028;-74
2023/06/25 00:58:12;;;;;;;13.87;12.57;;;;;;;;;;5284426;28;20098;-74
2023/06/25 01:00:43;;;;;;;14.02;12.48;;;;;;;;;;5283409;28;20259;-74
2023/06/25 01:03:26;;;;;;;13.73;12.32;;;;;;;;;;5283047;28;20028;-75
2023/06/25 01:06:12;;;;;;;14.90;13.40;;;;;;;;;;5283972;28;20070;-74
2023/06/25 01:08:49;;;;;;;14.38;12.90;;;;;;;;;;5283339;28;20485;-74
2023/06/25 01:11:20;;;;;;;14.77;13.32;;;;;;;;;;5283277;28;20013;-75
2023/06/25 01:13:51;;;;;;;13.75;12.45;;;;;;;;;;5283136;28;20498;-74
2023/06/25 01:16:23;;;;;;;15.50;13.70;;;;;;;;;;5283089;28;20066;-74
2023/06/25 01:18:58;;;;;;;14.23;12.73;;;;;;;;;;5285253;28;20278;-75
2023/06/25 01:21:30;;;;;;;14.45;13.00;;;;;;;;;;5283625;28;20025;-76
2023/06/25 01:24:02;;;;;;;13.55;12.25;;;;;;;;;;5282642;28;20052;-74
2023/06/25 01:26:34;;;;;;;13.93;12.38;;;;;;;;;;5283424;28;20047;-74
2023/06/25 01:29:05;;;;;;;13.77;12.52;;;;;;;;;;5282043;28;20357;-76
2023/06/25 01:31:36;;;;;;;13.50;12.10;;;;;;;;;;5282597;28;20018;-74
2023/06/25 01:34:07;;;;;;;14.10;12.80;;;;;;;;;;5283262;28;20112;-75
2023/06/25 01:36:40;;;;;;;14.48;12.88;;;;;;;;;;5283001;28;20551;-74
2023/06/25 01:39:11;;;;;;;14.82;13.30;;;;;;;;;;5282620;28;20544;-75
2023/06/25 01:41:42;;;;;;;15.65;14.05;;;;;;;;;;5282744;28;20433;-75
2023/06/25 01:44:15;;;;;;;14.68;13.15;;;;;;;;;;5282536;28;20025;-75
2023/06/25 01:46:46;;;;;;;17.58;13.20;;;;;;;;;;5282879;28;20020;-75
2023/06/25 01:49:17;;;;;;;16.33;13.37;;;;;;;;;;5283044;28;20078;-75
2023/06/25 01:51:48;;;;;;;14.97;13.53;;;;;;;;;;5281526;28;20669;-75
2023/06/25 01:54:20;;;;;;;15.32;13.73;;;;;;;;;;5283167;28;20309;-74
2023/06/25 01:56:51;;;;;;;15.30;13.80;;;;;;;;;;5282394;28;20016;-74
2023/06/25 01:59:22;;;;;;;15.88;13.77;;;;;;;;;;5282191;28;20271;-74
2023/06/25 02:01:53;;;;;;;14.50;13.13;;;;;;;;;;5282331;28;20471;-74
2023/06/25 02:04:25;;;;;;;15.05;13.38;;;;;;;;;;5282803;28;20068;-74
2023/06/25 02:06:56;;;;;;;15.65;14.05;;;;;;;;;;5281828;28;20031;-74
2023/06/25 02:09:27;;;;;;;14.75;13.32;;;;;;;;;;5282446;28;20043;-74
2023/06/25 02:11:58;;;;;;;15.35;13.45;;;;;;;;;;5282307;28;20021;-74
2023/06/25 02:14:30;;;;;;;13.75;12.38;;;;;;;;;;5281281;28;20047;-74
2023/06/25 02:17:01;;;;;;;15.50;14.00;;;;;;;;;;5282157;28;20340;-74
2023/06/25 02:19:32;;;;;;;14.60;13.20;;;;;;;;;;5281448;28;20270;-74
2023/06/25 02:22:03;;;;;;;15.93;14.33;;;;;;;;;;5281948;28;20267;-75
2023/06/25 02:24:34;;;;;;;17.30;15.23;;;;;;;;;;5281785;28;20793;-75
2023/06/25 02:27:06;;;;;;;16.03;14.43;;;;;;;;;;5280965;28;20054;-75
2023/06/25 02:29:37;;;;;;;15.65;14.05;;;;;;;;;;5282072;28;20263;-75
2023/06/25 02:32:08;;;;;;;16.00;14.40;;;;;;;;;;5281869;28;20016;-74
2023/06/25 02:34:39;;;;;;;16.08;14.50;;;;;;;;;;5280885;28;20259;-75
2023/06/25 02:37:12;;;;;;;16.58;14.88;;;;;;;;;;5281923;28;20055;-75
2023/06/25 02:39:43;;;;;;;15.90;14.05;;;;;;;;;;5281398;28;20215;-75
2023/06/25 02:42:14;;;;;;;17.20;15.23;;;;;;;;;;5281224;28;20487;-75
2023/06/25 02:44:45;;;;;;;17.15;15.43;;;;;;;;;;5281174;28;20279;-75
2023/06/25 02:47:16;;;;;;;18.50;16.50;;;;;;;;;;5281882;28;20494;-75
2023/06/25 02:49:48;;;;;;;18.48;16.40;;;;;;;;;;5280459;28;20275;-76
2023/06/25 02:52:19;;;;;;;18.37;16.07;;;;;;;;;;5281992;28;20068;-74
2023/06/25 02:54:50;;;;;;;17.77;15.87;;;;;;;;;;5280634;28;20633;-75
2023/06/25 02:57:25;;;;;;;17.55;15.85;;;;;;;;;;5281672;28;20271;-75
2023/06/25 02:59:57;;;;;;;18.38;16.48;;;;;;;;;;5281726;28;20379;-74
2023/06/25 03:02:28;;;;;;;19.48;17.15;;;;;;;;;;5280469;28;20020;-74
2023/06/25 03:04:59;;;;;;;19.33;17.23;;;;;;;;;;5281711;28;20595;-75
2023/06/25 03:07:30;;;;;;;18.47;16.63;;;;;;;;;;5281591;28;20020;-74
2023/06/25 03:10:01;;;;;;;19.50;17.27;;;;;;;;;;5280513;28;20312;-75
2023/06/25 03:12:33;;;;;;;18.20;15.18;;;;;;;;;;5281226;28;20386;-75
2023/06/25 03:15:04;;;;;;;17.85;16.05;;;;;;;;;;5281258;28;20117;-75
2023/06/25 03:17:35;;;;;;;18.25;16.35;;;;;;;;;;5280742;28;20016;-75
2023/06/25 03:20:07;;;;;;;18.30;16.50;;;;;;;;;;5281196;28;20027;-75
2023/06/25 03:22:38;;;;;;;18.20;16.27;;;;;;;;;;5280607;28;20375;-75
2023/06/25 03:25:10;;;;;;;18.40;16.05;;;;;;;;;;5281442;28;20080;-75
2023/06/25 03:27:41;;;;;;;19.13;16.25;;;;;;;;;;5281307;28;20021;-75
2023/06/25 03:30:12;;;;;;;15.85;14.02;;;;;;;;;;5280946;28;20047;-74
2023/06/25 03:32:44;;;;;;;17.58;14.88;;;;;;;;;;5281174;28;20016;-75
2023/06/25 03:35:17;;;;;;;17.60;15.25;;;;;;;;;;5281601;28;20016;-75
2023/06/25 03:37:48;;;;;;;18.17;16.27;;;;;;;;;;5280663;28;20519;-75
2023/06/25 03:40:19;;;;;;;18.73;15.85;;;;;;;;;;5281605;28;20115;-75
2023/06/25 03:42:50;;;;;;;17.93;16.03;;;;;;;;;;5281108;28;20534;-74
2023/06/25 03:45:22;;;;;;;17.70;15.30;;;;;;;;;;5281299;28;20277;-74
2023/06/25 03:47:53;;;;;;;16.27;14.57;;;;;;;;;;5280930;28;20274;-75
2023/06/25 03:50:24;;;;;;;16.83;15.03;;;;;;;;;;5281097;28;20275;-74
2023/06/25 03:52:55;;;;;;;22.15;15.75;;;;;;;;;;5283053;28;20784;-74
2023/06/25 03:55:26;;;;;;;16.40;14.70;;;;;;;;;;5285309;28;20032;-74
2023/06/25 03:57:58;;;;;;;20.03;15.13;;;;;;;;;;5284609;28;20747;-75
2023/06/25 04:00:29;;;;;;;17.35;14.30;;;;;;;;;;5284745;28;20262;-74
2023/06/25 04:03:00;;;;;;;18.92;16.00;;;;;;;;;;5284903;28;20025;-75
2023/06/25 04:05:32;;;;;;;20.75;15.57;;;;;;;;;;5284263;28;20040;-74
2023/06/25 04:08:03;;;;;;;18.25;15.57;;;;;;;;;;5285008;28;20099;-74
2023/06/25 04:10:34;;;;;;;16.88;15.15;;;;;;;;;;5284926;28;20013;-74
2023/06/25 04:13:06;;;;;;;16.77;14.80;;;;;;;;;;5284358;28;20112;-74
2023/06/25 04:15:37;;;;;;;16.40;14.75;;;;;;;;;;5284937;28;20271;-74
2023/06/25 04:18:08;;;;;;;17.93;14.60;;;;;;;;;;5284631;28;20371;-73
2023/06/25 04:20:39;;;;;;;17.23;15.43;;;;;;;;;;5283848;28;20366;-74
2023/06/25 04:23:11;;;;;;;24.75;15.20;;;;;;;;;;5284391;28;20040;-74
2023/06/25 04:25:43;;;;;;;19.13;14.68;;;;;;;;;;5284103;28;20127;-74
2023/06/25 04:28:15;;;;;;;15.25;13.27;;;;;;;;;;5283900;28;20028;-74
2023/06/25 04:30:46;;;;;;;15.23;13.50;;;;;;;;;;5284119;28;20355;-74
2023/06/25 04:33:19;;;;;;;15.57;13.13;;;;;;;;;;5284151;28;20086;-75
2023/06/25 04:35:50;;;;;;;20.77;13.88;;;;;;;;;;5284199;28;20353;-74
2023/06/25 04:38:21;;;;;;;16.77;12.70;;;;;;;;;;5284814;28;20474;-74
2023/06/25 04:40:53;;;;;;;13.87;11.90;;;;;;;;;;5283491;28;20365;-74
2023/06/25 04:43:24;;;;;;;15.63;13.17;;;;;;;;;;5284110;28;20355;-74
2023/06/25 04:45:55;;;;;;;14.40;13.13;;;;;;;;;;5284274;28;20772;-74
2023/06/25 04:48:26;;;;;;;15.97;14.40;;;;;;;;;;5283481;28;20423;-74
2023/06/25 04:50:57;;;;;;;15.10;13.50;;;;;;;;;;5284123;28;20072;-74
2023/06/25 04:53:29;;;;;;;15.25;13.77;;;;;;;;;;5284315;28;20267;-74
2023/06/25 04:56:00;;;;;;;15.80;14.20;;;;;;;;;;5283228;28;20081;-75
2023/06/25 04:58:32;;;;;;;16.08;14.50;;;;;;;;;;5283715;28;20532;-74
2023/06/25 05:01:03;;;;;;;17.20;15.30;;;;;;;;;;5283440;28;20017;-74
2023/06/25 05:03:34;;;;;;;15.68;13.88;;;;;;;;;;5283568;28;20108;-74
2023/06/25 05:06:05;;;;;;;18.30;16.55;;;;;;;;;;5283759;28;20367;-74
2023/06/25 05:08:36;;;;;;;16.52;14.80;;;;;;;;;;5282944;28;20067;-74
2023/06/25 05:11:08;;;;;;;15.40;13.90;;;;;;;;;;5283563;28;20024;-74
2023/06/25 05:13:39;;;;;;;17.87;16.17;;;;;;;;;;5283748;28;20020;-74
2023/06/25 05:16:10;;;;;;;17.23;15.63;;;;;;;;;;5283052;28;20270;-75
2023/06/25 05:18:42;;;;;;;17.83;16.13;;;;;;;;;;5283503;28;20367;-75
2023/06/25 05:21:13;;;;;;;19.13;16.98;;;;;;;;;;5284251;28;20043;-75
2023/06/25 05:23:45;;;;;;;17.80;16.00;;;;;;;;;;5282353;28;20108;-75
2023/06/25 05:26:16;;;;;;;18.85;16.85;;;;;;;;;;5283908;28;20745;-75
2023/06/25 05:28:47;;;;;;;17.13;15.50;;;;;;;;;;5283116;28;20361;-75
2023/06/25 05:31:18;;;;;;;18.58;16.40;;;;;;;;;;5283095;28;20016;-75
2023/06/25 05:33:49;;;;;;;18.63;16.63;;;;;;;;;;5282957;28;20077;-75
2023/06/25 05:36:21;;;;;;;17.38;15.73;;;;;;;;;;5282911;28;20355;-75
2023/06/25 05:38:52;;;;;;;16.45;14.85;;;;;;;;;;5282620;28;20027;-75
2023/06/25 05:41:23;;;;;;;18.95;17.02;;;;;;;;;;5283150;28;20498;-75
2023/06/25 05:43:54;;;;;;;18.75;17.00;;;;;;;;;;5282160;28;20024;-75
2023/06/25 05:46:25;;;;;;;18.40;16.70;;;;;;;;;;5282942;28;20017;-75
2023/06/25 05:48:57;;;;;;;17.53;15.93;;;;;;;;;;5283086;28;20020;-75
2023/06/25 05:51:28;;;;;;;17.35;15.55;;;;;;;;;;5282102;28;20286;-76
2023/06/25 05:53:59;;;;;;;17.10;15.50;;;;;;;;;;5283195;28;20105;-75
2023/06/25 05:56:30;;;;;;;15.77;14.27;;;;;;;;;;5282671;28;20032;-75
2023/06/25 05:59:02;;;;;;;16.73;13.88;;;;;;;;;;5281856;28;20035;-74
2023/06/25 06:01:33;;;;;;;15.25;13.65;;;;;;;;;;5282668;28;20376;-74
2023/06/25 06:04:05;;;;;;;15.40;13.93;;;;;;;;;;5282275;28;20032;-75
2023/06/25 06:06:36;;;;;;;15.80;14.13;;;;;;;;;;5281723;28;20376;-75
2023/06/25 06:09:07;;;;;;;15.13;13.43;;;;;;;;;;5282638;28;20103;-75
2023/06/25 06:11:39;;;;;;;15.52;14.02;;;;;;;;;;5281684;28;20146;-75
2023/06/25 06:14:10;;;;;;;13.38;12.02;;;;;;;;;;5282183;28;20103;-74
2023/06/25 06:16:41;;;;;;;11.77;10.68;;;;;;;;;;5281916;28;20543;-75
2023/06/25 06:19:12;;;;;;;13.23;11.48;;;;;;;;;;5282019;28;20016;-74
2023/06/25 06:21:43;;;;;;;12.65;11.52;;;;;;;;;;5280813;28;20017;-75
2023/06/25 06:24:15;;;;;;;13.27;11.88;;;;;;;;;;5282651;28;20029;-74
2023/06/25 06:26:46;;;;;;;11.63;10.43;;;;;;;;;;5281424;28;20040;-75
2023/06/25 06:29:19;;;;;;;11.10;10.07;;;;;;;;;;5282683;28;20267;-74
2023/06/25 06:31:50;;;;;;;11.48;9.68;;;;;;;;;;5281883;28;20367;-74
2023/06/25 06:34:21;;;;;;;10.70;9.60;;;;;;;;;;5281509;28;20048;-74
2023/06/25 06:36:52;;;;;;;10.17;9.23;;;;;;;;;;5281504;28;20259;-75
2023/06/25 06:39:23;;;;;;;10.10;8.37;;;;;;;;;;5281905;28;20278;-75
2023/06/25 06:41:54;;;;;;;9.80;7.95;;;;;;;;;;5281154;28;20052;-74
2023/06/25 06:44:26;;;;;;;9.13;7.57;;;;;;;;;;5281738;28;20491;-74
2023/06/25 06:46:57;;;;;;;7.45;6.78;;;;;;;;;;5280837;28;20354;-74
2023/06/25 06:49:28;;;;;;;7.30;6.32;;;;;;;;;;5281719;28;20092;-74
2023/06/25 06:51:59;;;;;;;7.20;6.50;;;;;;;;;;5281708;28;20074;-75
2023/06/25 06:54:31;;;;;;;7.15;6.45;;;;;;;;;;5280906;28;20282;-75
2023/06/25 06:57:02;;;;;;;6.00;5.43;;;;;;;;;;5281919;28;20467;-75
2023/06/25 06:59:33;;;;;;;5.30;4.80;;;;;;;;;;5281767;28;20327;-74
2023/06/25 07:02:04;;;;;;;6.00;5.40;;;;;;;;;;5281001;28;20027;-74
2023/06/25 07:04:36;;;;;;;5.95;4.50;;;;;;;;;;5281596;28;20283;-74
2023/06/25 07:07:07;;;;;;;4.20;3.80;;;;;;;;;;5281524;28;20017;-74
2023/06/25 07:09:48;;;;;;;3.50;3.20;;;;;;;;;;5280603;28;20074;-75
2023/06/25 07:12:20;;;;;;;4.65;3.75;;;;;;;;;;5281710;28;20309;-75
2023/06/25 07:14:51;;;;;;;4.07;3.45;;;;;;;;;;5280052;28;20443;-76
2023/06/25 07:17:24;;;;;;;3.50;2.53;;;;;;;;;;5281799;28;20467;-76
2023/06/25 07:19:55;;;;;;;4.38;2.55;;;;;;;;;;5281414;28;20346;-77
2023/06/25 07:22:26;;;;;;;4.13;2.53;;;;;;;;;;5280263;28;20104;-76
2023/06/25 07:24:57;;;;;;;3.70;2.88;;;;;;;;;;5281359;28;20271;-75
2023/06/25 07:27:29;;;;;;;3.80;2.75;;;;;;;;;;5283436;28;20017;-75
2023/06/25 07:30:00;;;;;;;4.40;3.17;;;;;;;;;;5284819;28;20059;-74
2023/06/25 07:32:31;;;;;;;3.70;2.70;;;;;;;;;;5285847;28;20036;-75
2023/06/25 07:35:02;;;;;;;4.00;2.92;;;;;;;;;;5285519;28;20348;-74
2023/06/25 07:37:34;;;;;;;5.72;2.90;;;;;;;;;;5284687;28;20525;-74
2023/06/25 07:40:05;;;;;;;3.13;2.30;;;;;;;;;;5285399;28;20052;-75
2023/06/25 07:42:36;;;;;;;3.78;3.20;;;;;;;;;;5285456;28;20097;-75
2023/06/25 07:45:08;;;;;;;3.63;2.57;;;;;;;;;;5284290;28;20051;-74
2023/06/25 07:47:40;;;;;;;5.10;2.50;;;;;;;;;;5273085;28;20271;-74
2023/06/25 07:50:11;;;;;;;5.70;2.40;;;;;;;;;;5294759;28;20024;-74
2023/06/25 07:52:43;;;;;;;2.90;2.50;;;;;;;;;;5305303;28;20049;-75
2023/06/25 07:55:14;;;;;;;5.37;2.80;;;;;;;;;;5305568;28;20269;-72
2023/06/25 07:57:45;;;;;;;3.30;2.95;;;;;;;;;;5302356;28;20261;-72
2023/06/25 08:00:16;;;;;;;4.77;2.63;;;;;;;;;;5306047;28;20022;-72
2023/06/25 08:02:48;;;;;;;3.20;2.70;;;;;;;;;;5304221;28;20281;-72
2023/06/25 08:05:19;;;;;;;3.20;2.67;;;;;;;;;;5305526;28;20486;-71
2023/06/25 08:07:50;;;;;;;3.50;3.15;;;;;;;;;;5305364;28;20477;-72
2023/06/25 08:10:22;;;;;;;4.40;2.50;;;;;;;;;;5305784;28;20482;-72
2023/06/25 08:12:54;;;;;;;4.57;2.50;;;;;;;;;;5304792;28;20347;-72
2023/06/25 08:15:25;;;;;;;3.22;2.65;;;;;;;;;;5305850;28;20012;-70
2023/06/25 08:17:56;;;;;;;3.43;2.30;;;;;;;;;;5304789;28;20020;-72
2023/06/25 08:20:30;;;;;;;3.03;2.50;;;;;;;;;;5305375;28;20605;-74
2023/06/25 08:23:01;;;;;;;4.18;2.88;;;;;;;;;;5305561;28;20039;-72
2023/06/25 08:25:32;;;;;;;3.23;2.67;;;;;;;;;;5304997;28;20013;-71
2023/06/25 08:28:03;;;;;;;3.47;2.73;;;;;;;;;;5305617;28;20085;-72
2023/06/25 08:30:35;;;;;;;2.65;2.10;;;;;;;;;;5305769;28;20354;-71
2023/06/25 08:33:06;;;;;;;3.03;2.20;;;;;;;;;;5304896;28;20493;-70
2023/06/25 08:35:37;;;;;;;4.70;2.53;;;;;;;;;;5305690;28;20294;-73
2023/06/25 08:38:08;;;;;;;3.00;2.50;;;;;;;;;;5304646;28;20023;-73
2023/06/25 08:40:40;;;;;;;2.75;1.95;;;;;;;;;;5304352;28;20262;-72
2023/06/25 08:43:11;;;;;;;4.82;2.00;;;;;;;;;;5305593;28;20036;-72
2023/06/25 08:45:42;;;;;;;3.35;2.20;;;;;;;;;;5304873;28;20046;-71
2023/06/25 08:48:15;;;;;;;3.70;2.20;;;;;;;;;;5304744;28;20058;-72
2023/06/25 08:50:50;;;;;;;3.05;1.52;;;;;;;;;;5304658;28;20497;-72
2023/06/25 08:53:24;;;;;;;4.80;2.35;;;;;;;;;;5304722;28;20024;-72
2023/06/25 08:55:58;;;;;;;2.83;1.77;;;;;;;;;;5305225;28;20099;-73
2023/06/25 08:58:31;;;;;;;2.95;1.55;;;;;;;;;;5305119;28;20026;-73
2023/06/25 09:01:03;;;;;;;2.08;1.35;;;;;;;;;;5302806;28;20035;-73
2023/06/25 09:03:36;;;;;;;2.92;1.63;;;;;;;;;;5304877;28;20144;-75
2023/06/25 09:06:14;;;;;;;3.00;1.52;;;;;;;;;;5304548;28;20019;-74
2023/06/25 09:08:45;;;;;;;2.78;1.40;;;;;;;;;;5303791;28;20023;-73
2023/06/25 09:11:16;;;;;;;1.70;1.30;;;;;;;;;;5305373;28;20463;-74
2023/06/25 09:13:47;;;;;;;1.97;1.40;;;;;;;;;;5304547;28;20020;-74
2023/06/25 09:16:18;;;;;;;2.70;1.47;;;;;;;;;;5304367;28;20020;-75
2023/06/25 09:18:51;;;;;;;2.10;1.40;;;;;;;;;;5304582;28;20031;-75
2023/06/25 09:21:23;;;;;;;2.95;1.33;;;;;;;;;;5304071;28;20375;-74
2023/06/25 09:23:54;;;;;;;4.70;1.20;;;;;;;;;;5304431;28;20024;-74
2023/06/25 09:26:25;;;;;;;2.13;1.40;;;;;;;;;;5304492;28;20019;-73
2023/06/25 09:28:59;;;;;;;2.27;1.20;;;;;;;;;;5303238;28;20024;-73
2023/06/25 09:31:32;;;;;;;2.30;1.00;;;;;;;;;;5304187;28;20020;-74
2023/06/25 09:34:04;;;;;;;1.98;1.20;;;;;;;;;;5304447;28;20023;-74
2023/06/25 09:36:35;;;;;;;1.98;1.13;;;;;;;;;;5303647;28;20023;-74
2023/06/25 09:39:07;;;;;;;4.10;1.50;;;;;;;;;;5304085;28;20016;-72
2023/06/25 09:41:42;;;;;;;2.25;0.95;;;;;;;;;;5304172;28;20349;-74
2023/06/25 09:44:14;;;;;;;2.50;1.20;;;;;;;;;;5303550;28;20497;-76
2023/06/25 09:46:46;;;;;;;2.05;0.85;;;;;;;;;;5303763;28;20020;-76
2023/06/25 09:49:19;;;;;;;2.58;0.98;;;;;;;;;;5303530;28;20035;-77
2023/06/25 09:51:59;;;;;;;2.92;1.10;;;;;;;;;;5303306;28;20391;-77
2023/06/25 09:54:31;;;;;;;1.88;1.33;;;;;;;;;;5303673;28;20390;-77
2023/06/25 09:57:03;;;;;;;1.85;1.00;;;;;;;;;;5303571;28;20024;-77
2023/06/25 09:59:36;;;;;;;1.25;0.90;;;;;;;;;;5303659;28;20024;-76
2023/06/25 10:02:07;;;;;;;2.25;0.90;;;;;;;;;;5304068;28;20024;-76
2023/06/25 10:04:39;;;;;;;1.90;0.80;;;;;;;;;;5302841;28;20039;-76
2023/06/25 10:07:10;;;;;;;1.83;0.90;;;;;;;;;;5303735;28;20016;-76
2023/06/25 10:09:51;;;;;;;1.27;0.80;;;;;;;;;;5303663;28;20537;-77
2023/06/25 10:12:23;;;;;;;1.65;0.90;;;;;;;;;;5303282;28;20020;-76
2023/06/25 10:14:54;;;;;;;1.63;0.80;;;;;;;;;;5303789;28;20047;-77
2023/06/25 10:17:25;;;;;;;1.80;1.33;;;;;;;;;;5303508;28;20023;-77
2023/06/25 10:19:58;;;;;;;1.40;0.90;;;;;;;;;;5303140;28;20293;-77
2023/06/25 10:22:33;;;;;;;2.33;1.23;;;;;;;;;;5303607;28;20024;-77
2023/06/25 10:25:04;;;;;;;1.25;0.90;;;;;;;;;;5302692;28;20362;-77
2023/06/25 10:27:35;;;;;;;1.83;0.90;;;;;;;;;;5303465;28;20015;-76
2023/06/25 10:30:12;;;;;;;1.60;1.07;;;;;;;;;;5303431;28;20027;-77
2023/06/25 10:32:43;;;;;;;3.53;1.20;;;;;;;;;;5302405;28;20357;-77
2023/06/25 10:35:18;;;;;;;3.13;1.40;;;;;;;;;;5303755;28;20095;-77
2023/06/25 10:37:49;;;;;;;4.78;1.20;;;;;;;;;;5302802;28;20016;-77
2023/06/25 10:40:22;;;;;;;1.52;1.10;;;;;;;;;;5302632;28;20023;-77
2023/06/25 10:42:54;;;;;;;2.88;1.20;;;;;;;;;;5303119;28;20023;-77
2023/06/25 10:45:25;;;;;;;2.27;1.10;;;;;;;;;;5303179;28;20035;-77
2023/06/25 10:48:04;;;;;;;2.25;1.20;;;;;;;;;;5302381;28;20024;-76
2023/06/25 10:50:36;;;;;;;2.20;1.20;;;;;;;;;;5302885;28;20439;-77
2023/06/25 10:53:11;;;;;;;1.45;0.93;;;;;;;;;;5302446;28;20049;-77
2023/06/25 10:55:43;;;;;;;1.75;1.02;;;;;;;;;;5302820;28;20392;-77
2023/06/25 10:58:16;;;;;;;2.72;1.25;;;;;;;;;;5303216;28;20042;-77
2023/06/25 11:00:54;;;;;;;2.28;1.33;;;;;;;;;;5301663;28;20028;-77
2023/06/25 11:03:26;;;;;;;4.32;1.15;;;;;;;;;;5302580;28;20031;-77
2023/06/25 11:05:57;;;;;;;1.77;1.03;;;;;;;;;;5302540;28;20408;-77
2023/06/25 11:08:28;;;;;;;2.07;1.20;;;;;;;;;;5301910;28;20369;-76
2023/06/25 11:11:00;;;;;;;2.13;1.20;;;;;;;;;;5302475;28;20023;-77
2023/06/25 11:13:31;;;;;;;2.80;1.38;;;;;;;;;;5302513;28;20032;-77
2023/06/25 11:16:03;;;;;;;3.38;1.25;;;;;;;;;;5301641;28;20023;-77
2023/06/25 11:18:36;;;;;;;2.90;1.20;;;;;;;;;;5302591;28;20379;-77
2023/06/25 11:21:08;;;;;;;4.18;1.50;;;;;;;;;;5301631;28;20051;-77
2023/06/25 11:23:42;;;;;;;1.77;1.10;;;;;;;;;;5302137;28;20439;-78
2023/06/25 11:26:17;;;;;;;1.85;1.15;;;;;;;;;;5302749;28;20069;-77
2023/06/25 11:28:49;;;;;;;1.58;1.20;;;;;;;;;;5301577;28;20024;-78
2023/06/25 11:31:20;;;;;;;1.80;1.00;;;;;;;;;;5302827;28;20008;-77
2023/06/25 11:33:55;;;;;;;1.90;1.27;;;;;;;;;;5302368;28;20081;-77
2023/06/25 11:36:26;;;;;;;3.42;1.25;;;;;;;;;;5301437;28;20020;-78
2023/06/25 11:38:58;;;;;;;2.40;1.20;;;;;;;;;;5302297;28;20070;-78
2023/06/25 11:41:29;;;;;;;1.70;1.20;;;;;;;;;;5302695;28;20008;-78
2023/06/25 11:44:00;;;;;;;3.87;1.23;;;;;;;;;;5301489;28;20032;-78
2023/06/25 11:46:31;;;;;;;1.83;1.10;;;;;;;;;;5302648;28;20016;-79
2023/06/25 11:49:02;;;;;;;3.93;1.40;;;;;;;;;;5301635;28;20073;-77
2023/06/25 11:51:34;;;;;;;2.90;1.10;;;;;;;;;;5302087;28;20052;-78
2023/06/25 11:54:05;;;;;;;1.95;0.98;;;;;;;;;;5302113;28;20278;-78
2023/06/25 11:56:36;;;;;;;1.53;1.10;;;;;;;;;;5301259;28;20107;-77
2023/06/25 11:59:07;;;;;;;4.03;1.00;;;;;;;;;;5302137;28;20484;-78
2023/06/25 12:01:38;;;;;;;2.30;1.20;;;;;;;;;;5301945;28;20270;-78
2023/06/25 12:04:10;;;;;;;1.80;1.30;;;;;;;;;;5301588;28;20359;-78
2023/06/25 12:06:41;;;;;;;1.70;1.17;;;;;;;;;;5301960;28;20020;-77
2023/06/25 12:09:12;;;;;;;3.23;1.23;;;;;;;;;;5302323;28;20074;-77
2023/06/25 12:11:45;;;;;;;2.53;1.10;;;;;;;;;;5301023;28;20370;-78
2023/06/25 12:14:16;;;;;;;1.98;1.00;;;;;;;;;;5305471;28;20103;-77
2023/06/25 12:16:47;;;;;;;4.03;1.30;;;;;;;;;;5305873;28;20099;-76
2023/06/25 12:19:18;;;;;;;1.70;1.10;;;;;;;;;;5305608;28;20012;-77
2023/06/25 12:21:50;;;;;;;3.50;1.10;;;;;;;;;;5305358;28;20020;-76
2023/06/25 12:24:21;;;;;;;2.93;1.30;;;;;;;;;;5305194;28;20367;-79
2023/06/25 12:26:54;;;;;;;2.35;1.38;;;;;;;;;;5305422;28;20016;-79
2023/06/25 12:29:25;;;;;;;2.58;1.30;;;;;;;;;;5305874;28;20103;-78
2023/06/25 12:31:56;;;;;;;10.57;1.30;;;;;;;;;;5304993;28;20091;-77
2023/06/25 12:34:28;;;;;;;2.10;1.50;;;;;;;;;;5305670;28;20073;-77
2023/06/25 12:36:59;;;;;;;1.58;1.15;;;;;;;;;;5305695;28;20024;-77
2023/06/25 12:39:30;;;;;;;1.83;1.33;;;;;;;;;;5305015;28;20024;-78
2023/06/25 12:42:02;;;;;;;2.10;1.17;;;;;;;;;;5305632;28;20016;-78
2023/06/25 12:44:33;;;;;;;2.50;1.15;;;;;;;;;;5305633;28;20055;-78
2023/06/25 12:47:04;;;;;;;3.00;1.53;;;;;;;;;;5304767;28;20012;-76
2023/06/25 12:49:37;;;;;;;2.40;1.30;;;;;;;;;;5305145;28;20027;-78
2023/06/25 12:52:08;;;;;;;2.17;1.23;;;;;;;;;;5305207;28;20286;-75
2023/06/25 12:54:39;;;;;;;2.28;1.33;;;;;;;;;;5304416;28;20019;-75
2023/06/25 12:57:10;;;;;;;8.93;1.27;;;;;;;;;;5305387;28;20166;-77
2023/06/25 12:59:42;;;;;;;2.07;1.10;;;;;;;;;;5304265;28;20573;-77
2023/06/25 13:02:13;;;;;;;3.43;1.17;;;;;;;;;;5305450;28;20020;-76
2023/06/25 13:04:44;;;;;;;1.70;1.20;;;;;;;;;;5304596;28;20046;-76
2023/06/25 13:07:15;;;;;;;1.60;0.90;;;;;;;;;;5304554;28;20469;-76
2023/06/25 13:09:46;;;;;;;2.43;1.20;;;;;;;;;;5304789;28;20391;-77
2023/06/25 13:12:17;;;;;;;3.47;1.20;;;;;;;;;;5305081;28;20024;-76
2023/06/25 13:14:49;;;;;;;1.50;1.23;;;;;;;;;;5303521;28;20044;-76
2023/06/25 13:17:20;;;;;;;2.60;1.33;;;;;;;;;;5305100;28;20023;-77
2023/06/25 13:19:51;;;;;;;2.33;1.10;;;;;;;;;;5304589;28;20386;-77
2023/06/25 13:22:22;;;;;;;3.63;1.10;;;;;;;;;;5304254;28;20266;-77
2023/06/25 13:24:54;;;;;;;1.80;1.17;;;;;;;;;;5304101;28;20095;-77
2023/06/25 13:27:25;;;;;;;1.60;1.08;;;;;;;;;;5304011;28;20266;-77
2023/06/25 13:29:56;;;;;;;3.08;0.82;;;;;;;;;;5304453;28;20024;-77
2023/06/25 13:32:27;;;;;;;2.97;1.37;;;;;;;;;;5304614;28;20463;-75
2023/06/25 13:34:58;;;;;;;2.00;1.30;;;;;;;;;;5303739;28;20270;-75
2023/06/25 13:37:30;;;;;;;1.85;1.33;;;;;;;;;;5304331;28;20290;-76
2023/06/25 13:40:01;;;;;;;1.70;1.27;;;;;;;;;;5304260;28;20064;-76
2023/06/25 13:42:32;;;;;;;2.20;1.17;;;;;;;;;;5303535;28;20020;-77
2023/06/25 13:45:04;;;;;;;1.73;1.48;;;;;;;;;;5304065;28;20036;-77
2023/06/25 13:47:35;;;;;;;1.58;1.10;;;;;;;;;;5304229;28;20134;-75
2023/06/25 13:50:08;;;;;;;2.72;1.70;;;;;;;;;;5303288;28;20034;-77
2023/06/25 13:52:39;;;;;;;2.75;1.35;;;;;;;;;;5304319;28;20034;-77
2023/06/25 13:55:10;;;;;;;3.53;1.30;;;;;;;;;;5304397;28;20028;-77
2023/06/25 13:57:42;;;;;;;3.53;1.37;;;;;;;;;;5303103;28;20024;-76
2023/06/25 14:00:13;;;;;;;2.90;1.48;;;;;;;;;;5304054;28;20024;-75
2023/06/25 14:02:45;;;;;;;1.75;1.17;;;;;;;;;;5302838;28;20069;-74
2023/06/25 14:05:16;;;;;;;1.85;1.55;;;;;;;;;;5304319;28;20023;-76
2023/06/25 14:07:47;;;;;;;2.55;1.77;;;;;;;;;;5303695;28;20351;-79
2023/06/25 14:10:18;;;;;;;2.70;1.27;;;;;;;;;;5303292;28;20012;-78
2023/06/25 14:12:50;;;;;;;1.40;1.17;;;;;;;;;;5303143;28;20581;-77
2023/06/25 14:15:21;;;;;;;2.53;1.20;;;;;;;;;;5303857;28;20277;-78
2023/06/25 14:17:52;;;;;;;1.30;1.07;;;;;;;;;;5302701;28;20498;-77
2023/06/25 14:20:23;;;;;;;2.33;1.50;;;;;;;;;;5303389;28;20027;-78
2023/06/25 14:22:57;;;;;;;2.57;1.20;;;;;;;;;;5303418;28;20371;-78
2023/06/25 14:25:29;;;;;;;1.60;1.40;;;;;;;;;;5302369;28;20081;-76
2023/06/25 14:28:00;;;;;;;2.17;1.40;;;;;;;;;;5303128;28;20012;-77
2023/06/25 14:30:31;;;;;;;2.00;1.20;;;;;;;;;;5303420;28;20498;-77
2023/06/25 14:33:02;;;;;;;4.27;1.27;;;;;;;;;;5302390;28;20324;-77
2023/06/25 14:35:34;;;;;;;1.77;1.33;;;;;;;;;;5302840;28;20486;-77
2023/06/25 14:38:05;;;;;;;2.80;1.30;;;;;;;;;;5302528;28;20269;-77
2023/06/25 14:40:37;;;;;;;2.37;1.37;;;;;;;;;;5303426;28;20034;-78
2023/06/25 14:43:08;;;;;;;2.03;1.60;;;;;;;;;;5303204;28;20124;-77
2023/06/25 14:45:39;;;;;;;2.57;1.70;;;;;;;;;;5302439;28;20020;-80
2023/06/25 14:48:10;;;;;;;1.50;1.00;;;;;;;;;;5303407;28;20032;-79
2023/06/25 14:50:41;;;;;;;2.13;1.13;;;;;;;;;;5302785;28;20840;-77
2023/06/25 14:53:13;;;;;;;2.53;1.20;;;;;;;;;;5302350;28;20020;-78
2023/06/25 14:55:45;;;;;;;1.90;1.40;;;;;;;;;;5302793;28;20016;-78
2023/06/25 14:58:16;;;;;;;7.53;1.50;;;;;;;;;;5303298;28;20031;-78